| Date | Time | Temp. (oF) | Dew Point (oF) | Rel. Hum. (%) | Press. (in.) | Wind Dir. | Wind Speed (mph) | Hourly Rainfall (in.) |
|
|---|---|---|---|---|---|---|---|---|---|
| 1 | 11/23 | 00:00 | 32 | 22 | 69 | 30.31 | N | 2 | 0.00 |
| 2 | 11/22 | 23:00 | 33 | 23 | 67 | 30.31 | N | 1 | 0.00 |
| 3 | 11/22 | 22:00 | 36 | 23 | 60 | 30.29 | N | 1 | 0.00 |
| 4 | 11/22 | 21:00 | 36 | 22 | 58 | 30.29 | NNW | 7 | 0.00 |
| 5 | 11/22 | 20:00 | 37 | 23 | 57 | 30.27 | N | 2 | 0.00 |
| 6 | 11/22 | 19:00 | 39 | 22 | 51 | 30.25 | N | 2 | 0.00 |
| 7 | 11/22 | 18:00 | 40 | 21 | 48 | 30.24 | N | 2 | 0.00 |
| 8 | 11/22 | 17:00 | 43 | 22 | 44 | 30.21 | N | 3 | 0.00 |
| 9 | 11/22 | 16:00 | 45 | 22 | 40 | 30.17 | N | 13 | 0.00 |
| 10 | 11/22 | 15:00 | 45 | 22 | 40 | 30.15 | N | 11 | 0.00 |
| 11 | 11/22 | 14:00 | 46 | 22 | 40 | 30.14 | NNW | 11 | 0.00 |
| 12 | 11/22 | 13:00 | 46 | 22 | 40 | 30.15 | N | 16 | 0.00 |
| 13 | 11/22 | 12:00 | 44 | 21 | 41 | 30.16 | N | 12 | 0.00 |
| 14 | 11/22 | 11:00 | 43 | 22 | 44 | 30.17 | N | 10 | 0.00 |
| 15 | 11/22 | 10:00 | 41 | 22 | 47 | 30.16 | N | 11 | 0.00 |
| 16 | 11/22 | 09:00 | 40 | 23 | 51 | 30.15 | N | 1 | 0.00 |
| 17 | 11/22 | 08:00 | 35 | 21 | 58 | 30.14 | N | 5 | 0.00 |
| 18 | 11/22 | 07:00 | 33 | 19 | 58 | 30.10 | NNW | 2 | 0.00 |
| 19 | 11/22 | 06:00 | 33 | 19 | 57 | 30.07 | NNW | 6 | 0.00 |
| 20 | 11/22 | 05:00 | 35 | 20 | 55 | 30.06 | N | 8 | 0.00 |
| 21 | 11/22 | 04:00 | 36 | 21 | 55 | 30.05 | NNW | 16 | 0.00 |
| 22 | 11/22 | 03:00 | 36 | 20 | 53 | 30.04 | N | 15 | 0.00 |
| 23 | 11/22 | 02:00 | 36 | 19 | 51 | 30.03 | N | 10 | 0.00 |
| 24 | 11/22 | 01:00 | 36 | 19 | 50 | 30.00 | N | 10 | 0.00 |